Time;durP1;ratioP1;P1;durP2;ratioP2;P2;SDS_P1;SDS_P2;PMS_P1;PMS_P2;Temp;Humidity;BMP_temperature;BMP_pressure;BME280_temperature;BME280_humidity;BME280_pressure;Samples;Min_cycle;Max_cycle;Signal;HPM_P1;HPM_P2
2024/02/04 00:00:47;;;;;;;23.10;2.95;;;;;;;;;;6143428;23;20079;-50
2024/02/04 00:03:14;;;;;;;;;;;;;;;;;;6143724;23;20029;-53
2024/02/04 00:05:42;;;;;;;20.10;3.13;;;;;;;;;;6143068;23;19921;-46
2024/02/04 00:08:17;;;;;;;25.45;3.47;;;;;;;;;;6143408;23;20387;-61
2024/02/04 00:10:44;;;;;;;25.35;3.67;;;;;;;;;;6142293;23;20026;-60
2024/02/04 00:13:31;;;;;;;25.02;4.70;;;;;;;;;;6116773;23;20774;-60
2024/02/04 00:16:18;;;;;;;22.67;3.90;;;;;;;;;;6143905;23;20024;-59
2024/02/04 00:18:53;;;;;;;37.80;4.63;;;;;;;;;;6143630;23;20021;-52
2024/02/04 00:21:20;;;;;;;30.20;4.38;;;;;;;;;;6143463;23;20035;-62
2024/02/04 00:23:47;;;;;;;;;;;;;;;;;;6144755;23;20057;-62
2024/02/04 00:26:21;;;;;;;23.88;3.65;;;;;;;;;;6142800;23;20151;-61
2024/02/04 00:28:48;;;;;;;32.92;4.57;;;;;;;;;;6116473;23;20025;-62
2024/02/04 00:31:22;;;;;;;31.55;4.20;;;;;;;;;;6142616;23;20029;-62
2024/02/04 00:33:49;;;;;;;29.77;4.97;;;;;;;;;;6142983;23;20052;-62
2024/02/04 00:36:18;;;;;;;30.08;5.05;;;;;;;;;;6144541;23;20374;-58
2024/02/04 00:38:52;;;;;;;38.20;3.78;;;;;;;;;;6144064;23;20107;-56
2024/02/04 00:41:19;;;;;;;24.10;3.95;;;;;;;;;;6143428;23;20021;-58
2024/02/04 00:43:53;;;;;;;26.38;4.15;;;;;;;;;;6141747;23;20026;-58
2024/02/04 00:46:21;;;;;;;20.17;4.63;;;;;;;;;;6143831;23;20499;-49
2024/02/04 00:48:48;;;;;;;34.25;5.00;;;;;;;;;;6142796;23;20029;-52
2024/02/04 00:51:22;;;;;;;33.90;5.05;;;;;;;;;;6144815;23;20025;-50
2024/02/04 00:53:49;;;;;;;27.05;4.53;;;;;;;;;;6143755;23;20030;-49
2024/02/04 00:56:16;;;;;;;30.88;4.20;;;;;;;;;;6143961;23;20076;-49
2024/02/04 00:58:51;;;;;;;22.60;3.85;;;;;;;;;;6142437;23;20061;-50
2024/02/04 01:01:19;;;;;;;;;;;;;;;;;;6144778;23;20026;-51
2024/02/04 01:03:54;;;;;;;23.60;4.03;;;;;;;;;;6144711;23;19966;-60
2024/02/04 01:06:21;;;;;;;24.38;3.78;;;;;;;;;;6145283;23;20025;-60
2024/02/04 01:08:48;;;;;;;23.00;3.00;;;;;;;;;;6143737;23;20026;-60
2024/02/04 01:11:22;;;;;;;24.83;3.05;;;;;;;;;;6142569;23;20100;-60
2024/02/04 01:13:56;;;;;;;28.35;3.58;;;;;;;;;;6144066;23;20037;-67
2024/02/04 01:16:36;;;;;;;20.05;3.67;;;;;;;;;;6145886;23;20407;-58
2024/02/04 01:19:03;;;;;;;24.08;4.00;;;;;;;;;;6119275;23;20025;-59
2024/02/04 01:21:37;;;;;;;19.45;2.92;;;;;;;;;;6145379;23;20073;-58
2024/02/04 01:24:05;;;;;;;23.10;3.30;;;;;;;;;;6146522;23;20670;-58
2024/02/04 01:26:32;;;;;;;20.55;3.53;;;;;;;;;;6144519;23;20029;-59
2024/02/04 01:29:06;;;;;;;19.58;3.78;;;;;;;;;;6146723;23;20084;-59
2024/02/04 01:31:33;;;;;;;;;;;;;;;;;;6143912;23;20022;-60
2024/02/04 01:34:07;;;;;;;33.97;3.75;;;;;;;;;;6146522;23;19940;-60
2024/02/04 01:36:36;;;;;;;26.75;4.70;;;;;;;;;;6145792;23;20029;-60
2024/02/04 01:39:10;;;;;;;23.27;3.42;;;;;;;;;;6146657;23;20463;-60
2024/02/04 01:41:37;;;;;;;24.25;3.42;;;;;;;;;;6143709;23;20032;-66
2024/02/04 01:44:06;;;;;;;;;;;;;;;;;;6145689;23;20459;-63
2024/02/04 01:46:40;;;;;;;30.48;3.30;;;;;;;;;;6143723;23;19916;-62
2024/02/04 01:49:08;;;;;;;30.25;3.85;;;;;;;;;;6144699;23;20486;-62
2024/02/04 01:51:42;;;;;;;13.32;2.55;;;;;;;;;;6143067;23;20057;-62
2024/02/04 01:54:09;;;;;;;25.73;3.83;;;;;;;;;;6144954;23;20052;-62
2024/02/04 01:56:36;;;;;;;26.90;3.97;;;;;;;;;;6144648;23;20029;-62
2024/02/04 01:59:12;;;;;;;26.52;4.38;;;;;;;;;;6144559;23;20033;-62
2024/02/04 02:01:39;;;;;;;22.77;3.95;;;;;;;;;;6143345;23;20068;-51
2024/02/04 02:04:13;;;;;;;27.65;3.60;;;;;;;;;;6145753;23;20044;-53
2024/02/04 02:06:43;;;;;;;32.80;4.22;;;;;;;;;;6143543;23;20065;-55
2024/02/04 02:09:13;;;;;;;19.23;3.78;;;;;;;;;;6145574;23;20025;-50
2024/02/04 02:12:10;;;;;;;22.52;3.88;;;;;;;;;;6140858;23;20450;-60
2024/02/04 02:14:40;;;;;;;22.40;3.53;;;;;;;;;;6143493;23;20036;-59
2024/02/04 02:17:22;;;;;;;24.67;3.95;;;;;;;;;;6145599;23;20025;-57
2024/02/04 02:19:59;;;;;;;29.25;3.88;;;;;;;;;;6144838;23;20100;-57
2024/02/04 02:22:49;;;;;;;24.50;3.47;;;;;;;;;;6145747;23;20119;-58
2024/02/04 02:25:17;;;;;;;25.92;3.35;;;;;;;;;;6144181;23;20029;-58
2024/02/04 02:27:50;;;;;;;16.55;2.30;;;;;;;;;;6143782;23;20033;-58
2024/02/04 02:30:24;;;;;;;25.45;3.60;;;;;;;;;;6145791;23;20100;-67
2024/02/04 02:33:01;;;;;;;29.33;4.25;;;;;;;;;;6143810;23;20486;-66
2024/02/04 02:35:28;;;;;;;19.42;3.83;;;;;;;;;;6143706;23;20810;-66
2024/02/04 02:37:56;;;;;;;;;;;;;;;;;;6144781;23;20018;-66
2024/02/04 02:40:34;;;;;;;34.95;3.72;;;;;;;;;;6144022;23;19995;-66
2024/02/04 02:43:03;;;;;;;30.35;3.75;;;;;;;;;;6146422;23;20103;-60
2024/02/04 02:45:37;;;;;;;28.92;3.97;;;;;;;;;;6145199;23;20459;-60
2024/02/04 02:48:06;;;;;;;26.27;3.83;;;;;;;;;;6142508;23;20477;-60
2024/02/04 02:50:39;;;;;;;29.50;4.15;;;;;;;;;;6143939;23;20025;-60
2024/02/04 02:53:07;;;;;;;19.70;2.95;;;;;;;;;;6116781;23;20028;-60
2024/02/04 02:55:34;;;;;;;25.30;3.90;;;;;;;;;;6142666;23;20543;-60
2024/02/04 02:58:07;;;;;;;14.55;2.50;;;;;;;;;;6145448;23;20451;-60
2024/02/04 03:00:35;;;;;;;21.40;3.78;;;;;;;;;;6143407;23;20021;-61
2024/02/04 03:03:02;;;;;;;35.45;4.32;;;;;;;;;;6143600;23;20358;-60
2024/02/04 03:05:37;;;;;;;22.50;3.53;;;;;;;;;;6144157;23;20057;-60
2024/02/04 03:08:05;;;;;;;30.60;4.40;;;;;;;;;;6144497;23;20040;-63
2024/02/04 03:10:39;;;;;;;24.40;4.28;;;;;;;;;;6143657;23;20026;-67
2024/02/04 03:13:06;;;;;;;39.90;4.80;;;;;;;;;;6144848;23;20464;-66
2024/02/04 03:15:34;;;;;;;25.77;4.32;;;;;;;;;;6144744;23;20553;-66
2024/02/04 03:18:07;;;;;;;27.65;3.60;;;;;;;;;;6119654;23;20021;-66
2024/02/04 03:20:34;;;;;;;26.77;4.13;;;;;;;;;;6141838;23;20479;-67
2024/02/04 03:23:08;;;;;;;36.42;4.57;;;;;;;;;;6144221;23;20091;-66
2024/02/04 03:25:35;;;;;;;26.85;4.18;;;;;;;;;;6142861;23;20055;-60
2024/02/04 03:28:03;;;;;;;33.85;5.03;;;;;;;;;;6144838;23;20026;-60
2024/02/04 03:30:36;;;;;;;36.67;5.13;;;;;;;;;;6144318;23;20022;-60
2024/02/04 03:33:04;;;;;;;;;;;;;;;;;;6143064;23;20351;-60
2024/02/04 03:35:38;;;;;;;36.78;5.00;;;;;;;;;;6143023;23;20350;-60
2024/02/04 03:38:05;;;;;;;35.28;4.32;;;;;;;;;;6143237;23;20482;-62
2024/02/04 03:40:35;;;;;;;34.47;4.22;;;;;;;;;;6144163;23;20025;-63
2024/02/04 03:43:08;;;;;;;34.42;4.53;;;;;;;;;;6145413;23;20033;-62
2024/02/04 03:45:36;;;;;;;32.95;4.72;;;;;;;;;;6144581;23;20022;-63
2024/02/04 03:48:09;;;;;;;28.42;4.07;;;;;;;;;;6144161;23;20072;-63
2024/02/04 03:50:37;;;;;;;;;;;;;;;;;;6145221;23;20056;-63
2024/02/04 03:53:04;;;;;;;29.83;4.13;;;;;;;;;;6143143;23;19916;-63
2024/02/04 03:55:38;;;;;;;34.33;4.60;;;;;;;;;;6145437;23;20030;-66
2024/02/04 03:58:05;;;;;;;39.97;5.65;;;;;;;;;;6118954;23;20026;-67
2024/02/04 04:00:39;;;;;;;36.38;5.22;;;;;;;;;;6143469;23;20471;-66
2024/02/04 04:03:07;;;;;;;44.35;4.45;;;;;;;;;;6142936;23;20056;-67
2024/02/04 04:05:34;;;;;;;37.35;5.32;;;;;;;;;;6143448;23;20021;-62
2024/02/04 04:08:08;;;;;;;45.63;5.97;;;;;;;;;;6144075;23;20088;-58
2024/02/04 04:10:36;;;;;;;38.80;5.60;;;;;;;;;;6145967;23;20022;-58
2024/02/04 04:13:09;;;;;;;41.65;5.50;;;;;;;;;;6145194;23;20022;-58
2024/02/04 04:15:43;;;;;;;31.58;4.65;;;;;;;;;;6143092;23;20383;-59
2024/02/04 04:18:17;;;;;;;34.58;4.88;;;;;;;;;;6145413;23;20100;-58
2024/02/04 04:20:45;;;;;;;43.65;4.65;;;;;;;;;;6142789;23;20026;-59
2024/02/04 04:23:13;;;;;;;36.70;4.70;;;;;;;;;;6142022;23;20029;-58
2024/02/04 04:25:46;;;;;;;43.10;5.45;;;;;;;;;;6143950;23;20029;-58
2024/02/04 04:28:13;;;;;;;27.60;4.13;;;;;;;;;;6142711;23;20390;-56
2024/02/04 04:30:47;;;;;;;35.03;4.75;;;;;;;;;;6144497;23;20421;-58
2024/02/04 04:33:15;;;;;;;25.20;4.05;;;;;;;;;;6143486;23;20558;-63
2024/02/04 04:35:48;;;;;;;41.65;5.22;;;;;;;;;;6143094;23;20395;-60
2024/02/04 04:38:16;;;;;;;27.77;4.55;;;;;;;;;;6143189;23;20426;-60
2024/02/04 04:40:43;;;;;;;33.65;4.57;;;;;;;;;;6144376;23;20029;-61
2024/02/04 04:43:16;;;;;;;33.92;4.43;;;;;;;;;;6145249;23;20092;-60
2024/02/04 04:45:43;;;;;;;32.83;4.57;;;;;;;;;;6143063;23;20021;-61
2024/02/04 04:48:17;;;;;;;43.55;5.82;;;;;;;;;;6144823;23;20045;-60
2024/02/04 04:50:45;;;;;;;;;;;;;;;;;;6147242;23;20021;-62
2024/02/04 04:53:12;;;;;;;32.38;4.25;;;;;;;;;;6145578;23;19920;-62
2024/02/04 04:55:45;;;;;;;37.17;4.85;;;;;;;;;;6146325;23;20017;-62
2024/02/04 04:58:12;;;;;;;31.15;4.13;;;;;;;;;;6147017;23;20025;-62
2024/02/04 05:00:46;;;;;;;28.70;4.40;;;;;;;;;;6144576;23;20028;-67
2024/02/04 05:03:14;;;;;;;35.20;5.70;;;;;;;;;;6146271;23;20021;-60
2024/02/04 05:05:41;;;;;;;31.33;4.93;;;;;;;;;;6145713;23;20022;-63
2024/02/04 05:08:15;;;;;;;23.85;2.78;;;;;;;;;;6145165;23;20025;-63
2024/02/04 05:10:42;;;;;;;20.40;3.95;;;;;;;;;;6145769;23;20105;-64
2024/02/04 05:13:16;;;;;;;19.02;3.30;;;;;;;;;;6146644;23;20055;-63
2024/02/04 05:15:50;;;;;;;31.02;3.83;;;;;;;;;;6115279;23;20030;-63
2024/02/04 05:18:26;;;;;;;23.58;4.47;;;;;;;;;;6117556;23;20029;-63
2024/02/04 05:20:54;;;;;;;25.65;3.88;;;;;;;;;;6116923;23;20026;-52
2024/02/04 05:23:22;;;;;;;22.27;3.95;;;;;;;;;;6114523;23;20026;-53
2024/02/04 05:25:55;;;;;;;17.17;2.40;;;;;;;;;;6114652;23;20407;-52
2024/02/04 05:28:23;;;;;;;20.85;3.13;;;;;;;;;;6114193;23;20069;-51
2024/02/04 05:30:56;;;;;;;23.85;4.18;;;;;;;;;;6102385;23;20022;-60
2024/02/04 05:33:43;;;;;;;18.70;3.40;;;;;;;;;;6113662;23;20037;-63
2024/02/04 05:36:38;;;;;;;25.63;4.20;;;;;;;;;;6115502;23;20022;-63
2024/02/04 05:39:25;;;;;;;36.63;4.78;;;;;;;;;;6113715;23;20060;-63
2024/02/04 05:42:18;;;;;;;29.85;4.15;;;;;;;;;;6115602;23;20125;-63
2024/02/04 05:45:06;;;;;;;39.92;4.50;;;;;;;;;;6112800;23;20113;-63
2024/02/04 05:48:00;;;;;;;25.05;3.72;;;;;;;;;;6113173;23;20025;-57
2024/02/04 05:50:47;;;;;;;25.73;4.03;;;;;;;;;;6114582;23;20029;-65
2024/02/04 05:53:41;;;;;;;24.65;3.85;;;;;;;;;;6113653;23;20214;-67
2024/02/04 05:56:35;;;;;;;26.95;3.92;;;;;;;;;;6115633;23;20092;-66
2024/02/04 05:59:36;;;;;;;29.48;3.60;;;;;;;;;;6113638;23;20283;-66
2024/02/04 06:02:29;;;;;;;19.52;3.72;;;;;;;;;;6113148;23;20030;-66
2024/02/04 06:05:16;;;;;;;26.10;4.00;;;;;;;;;;6114339;23;20026;-67
2024/02/04 06:08:10;;;;;;;25.23;3.22;;;;;;;;;;6115472;23;20077;-66
2024/02/04 06:10:58;;;;;;;22.90;3.20;;;;;;;;;;6116647;23;20026;-66
2024/02/04 06:13:58;;;;;;;26.23;4.22;;;;;;;;;;6116155;23;20025;-66
2024/02/04 06:16:52;;;;;;;23.92;3.65;;;;;;;;;;6116413;23;20483;-60
2024/02/04 06:19:47;;;;;;;31.65;4.85;;;;;;;;;;6115356;23;20456;-60
2024/02/04 06:22:35;;;;;;;17.63;3.42;;;;;;;;;;6114405;23;20499;-59
2024/02/04 06:25:28;;;;;;;21.08;3.45;;;;;;;;;;6114232;23;20026;-60
2024/02/04 06:28:22;;;;;;;29.85;3.55;;;;;;;;;;6116612;23;20026;-60
2024/02/04 06:31:10;;;;;;;29.02;4.03;;;;;;;;;;6115387;23;20383;-60
2024/02/04 06:34:03;;;;;;;23.15;3.08;;;;;;;;;;6115663;23;20382;-60
2024/02/04 06:36:54;;;;;;;26.38;3.60;;;;;;;;;;6114725;23;20057;-59
2024/02/04 06:39:48;;;;;;;26.13;4.00;;;;;;;;;;6114073;23;20032;-60
2024/02/04 06:42:35;;;;;;;32.17;5.32;;;;;;;;;;6114042;23;20029;-60
2024/02/04 06:45:28;;;;;;;31.15;4.03;;;;;;;;;;6113423;23;20025;-59
2024/02/04 06:48:19;;;;;;;33.60;4.82;;;;;;;;;;6114211;23;20022;-49
2024/02/04 06:51:12;;;;;;;30.45;4.15;;;;;;;;;;6114486;23;20022;-49
2024/02/04 06:54:01;;;;;;;23.45;4.80;;;;;;;;;;6113431;23;20032;-54
2024/02/04 06:56:53;;;;;;;24.38;4.00;;;;;;;;;;6113459;23;20108;-55
2024/02/04 06:59:41;;;;;;;22.33;3.92;;;;;;;;;;6113064;23;20054;-50
2024/02/04 07:02:41;;;;;;;24.45;3.35;;;;;;;;;;6112391;23;20082;-47
2024/02/04 07:05:28;;;;;;;28.30;4.35;;;;;;;;;;6115209;23;20398;-60
2024/02/04 07:08:22;;;;;;;28.48;4.60;;;;;;;;;;6114967;23;20034;-60
2024/02/04 07:11:09;;;;;;;22.80;3.30;;;;;;;;;;6115324;23;20456;-60
2024/02/04 07:14:16;;;;;;;24.65;3.40;;;;;;;;;;6115660;23;20072;-60
2024/02/04 07:17:13;;;;;;;21.60;3.75;;;;;;;;;;6145688;23;20026;-50
2024/02/04 07:20:06;;;;;;;20.55;3.60;;;;;;;;;;6143779;23;20028;-48
2024/02/04 07:23:00;;;;;;;22.20;3.92;;;;;;;;;;6144619;23;20021;-51
2024/02/04 07:25:48;;;;;;;25.95;4.03;;;;;;;;;;6143437;23;20021;-52
2024/02/04 07:28:41;;;;;;;17.60;2.53;;;;;;;;;;6143817;23;20206;-49
2024/02/04 07:31:29;;;;;;;16.35;2.42;;;;;;;;;;6143846;23;20057;-52
2024/02/04 07:34:23;;;;;;;18.98;2.67;;;;;;;;;;6143728;23;20051;-56
2024/02/04 07:37:10;;;;;;;20.25;2.85;;;;;;;;;;6143232;23;20024;-49
2024/02/04 07:40:05;;;;;;;34.03;3.97;;;;;;;;;;6143689;23;20025;-57
2024/02/04 07:42:51;;;;;;;16.67;2.25;;;;;;;;;;6142419;23;20021;-60
2024/02/04 07:45:44;;;;;;;21.73;2.90;;;;;;;;;;6141935;23;20022;-61
2024/02/04 07:48:32;;;;;;;23.10;3.40;;;;;;;;;;6145050;23;20072;-60
2024/02/04 07:51:25;;;;;;;11.60;2.55;;;;;;;;;;6145593;23;20025;-60
2024/02/04 07:54:12;;;;;;;29.75;3.45;;;;;;;;;;6145153;23;20032;-60
2024/02/04 07:57:06;;;;;;;24.33;3.47;;;;;;;;;;6145885;23;20517;-61
2024/02/04 08:00:03;;;;;;;17.83;2.53;;;;;;;;;;6144863;23;20455;-67
2024/02/04 08:02:55;;;;;;;26.00;3.58;;;;;;;;;;6145501;23;20033;-67
2024/02/04 08:05:42;;;;;;;11.63;2.80;;;;;;;;;;6144697;23;20408;-66
2024/02/04 08:08:36;;;;;;;24.30;3.20;;;;;;;;;;6145810;23;20253;-66
2024/02/04 08:11:24;;;;;;;22.23;3.22;;;;;;;;;;6145113;23;20029;-64
2024/02/04 08:14:30;;;;;;;19.52;2.97;;;;;;;;;;6142121;23;20530;-62
2024/02/04 08:17:25;;;;;;;19.23;2.85;;;;;;;;;;6143943;23;20025;-62
2024/02/04 08:20:19;;;;;;;23.73;3.83;;;;;;;;;;6141762;23;20614;-62
2024/02/04 08:23:06;;;;;;;23.45;4.13;;;;;;;;;;6142882;23;20875;-63
2024/02/04 08:26:00;;;;;;;23.02;3.08;;;;;;;;;;6142953;23;20774;-62
2024/02/04 08:28:47;;;;;;;17.73;3.47;;;;;;;;;;6143442;23;20083;-52
2024/02/04 08:31:41;;;;;;;19.30;3.00;;;;;;;;;;6144574;23;20032;-48
2024/02/04 08:34:29;;;;;;;23.98;3.83;;;;;;;;;;6143603;23;20084;-50
2024/02/04 08:37:23;;;;;;;29.77;4.07;;;;;;;;;;6142294;23;20026;-52
2024/02/04 08:40:10;;;;;;;25.17;3.80;;;;;;;;;;6142124;23;20090;-66
2024/02/04 08:43:03;;;;;;;22.73;3.22;;;;;;;;;;6143370;23;20100;-51
2024/02/04 08:45:50;;;;;;;26.38;4.38;;;;;;;;;;6143409;23;20017;-52
2024/02/04 08:48:44;;;;;;;23.60;3.67;;;;;;;;;;6140538;23;20061;-54
2024/02/04 08:51:32;;;;;;;21.77;3.10;;;;;;;;;;6141951;23;20036;-55
2024/02/04 08:54:25;;;;;;;22.63;3.40;;;;;;;;;;6142316;23;20025;-48
2024/02/04 08:57:13;;;;;;;21.67;3.38;;;;;;;;;;6141871;23;20927;-67
2024/02/04 09:00:11;;;;;;;19.60;2.72;;;;;;;;;;6141404;23;20080;-67
2024/02/04 09:02:57;;;;;;;24.05;3.13;;;;;;;;;;6141849;23;20124;-67
2024/02/04 09:05:50;;;;;;;18.92;2.67;;;;;;;;;;6141243;23;20021;-67
2024/02/04 09:08:38;;;;;;;16.48;2.88;;;;;;;;;;6142965;23;20025;-62
2024/02/04 09:11:31;;;;;;;21.38;3.70;;;;;;;;;;6142911;23;20021;-60
2024/02/04 09:14:19;;;;;;;18.20;3.25;;;;;;;;;;6143325;23;20045;-60
2024/02/04 09:17:19;;;;;;;15.07;2.63;;;;;;;;;;6143554;23;20024;-60
2024/02/04 09:20:07;;;;;;;18.88;2.60;;;;;;;;;;6141947;23;20026;-60
2024/02/04 09:23:00;;;;;;;14.52;2.83;;;;;;;;;;6144162;23;20053;-60
2024/02/04 09:25:54;;;;;;;14.45;2.97;;;;;;;;;;6141340;23;20025;-57
2024/02/04 09:28:45;;;;;;;17.85;3.28;;;;;;;;;;6141064;23;20021;-59
2024/02/04 09:31:39;;;;;;;13.15;2.35;;;;;;;;;;6144170;23;20028;-57
2024/02/04 09:34:27;;;;;;;19.10;3.13;;;;;;;;;;6139870;23;20072;-58
2024/02/04 09:37:22;;;;;;;15.32;2.75;;;;;;;;;;6145289;23;20021;-63
2024/02/04 09:40:16;;;;;;;22.30;3.15;;;;;;;;;;6146826;23;20022;-63
2024/02/04 09:43:03;;;;;;;15.23;2.58;;;;;;;;;;6144123;23;20029;-63
2024/02/04 09:45:57;;;;;;;20.92;3.03;;;;;;;;;;6142949;23;20025;-62
2024/02/04 09:48:46;;;;;;;21.13;2.85;;;;;;;;;;6142878;23;20021;-63
2024/02/04 09:51:40;;;;;;;16.00;2.85;;;;;;;;;;6142628;23;20028;-63
2024/02/04 09:54:39;;;;;;;16.23;3.22;;;;;;;;;;6144805;23;20025;-60
2024/02/04 09:57:35;;;;;;;13.30;2.67;;;;;;;;;;6144849;23;20018;-60
2024/02/04 10:00:22;;;;;;;16.20;2.85;;;;;;;;;;6140729;23;20032;-59
2024/02/04 10:03:16;;;;;;;14.82;2.35;;;;;;;;;;6143154;23;20479;-60
2024/02/04 10:06:04;;;;;;;21.80;3.92;;;;;;;;;;6144827;23;20029;-60
2024/02/04 10:08:59;;;;;;;14.45;2.92;;;;;;;;;;6145105;23;20022;-67
2024/02/04 10:11:46;;;;;;;18.30;2.65;;;;;;;;;;6144426;23;20032;-66
2024/02/04 10:14:47;;;;;;;17.00;3.45;;;;;;;;;;6145641;23;20025;-67
2024/02/04 10:17:47;;;;;;;20.95;3.53;;;;;;;;;;6144735;23;20029;-67
2024/02/04 10:20:43;;;;;;;13.60;3.20;;;;;;;;;;6142849;23;20025;-66
2024/02/04 10:23:30;;;;;;;12.10;2.90;;;;;;;;;;6146616;23;20033;-60
2024/02/04 10:26:30;;;;;;;20.98;3.30;;;;;;;;;;6144188;23;20088;-60
2024/02/04 10:29:17;;;;;;;15.23;2.42;;;;;;;;;;6144006;23;20029;-60
2024/02/04 10:32:09;;;;;;;18.65;3.42;;;;;;;;;;6145919;23;20105;-66
2024/02/04 10:34:59;;;;;;;15.55;3.03;;;;;;;;;;6143950;23;20388;-57
2024/02/04 10:37:52;;;;;;;15.48;2.97;;;;;;;;;;6145886;23;20100;-57
2024/02/04 10:40:39;;;;;;;12.43;2.28;;;;;;;;;;6143846;23;20025;-59
2024/02/04 10:43:36;;;;;;;22.05;2.70;;;;;;;;;;6144512;23;20048;-59
2024/02/04 10:46:23;;;;;;;13.52;2.30;;;;;;;;;;6146250;23;20021;-57
2024/02/04 10:49:19;;;;;;;9.80;2.17;;;;;;;;;;6144350;23;20022;-57
2024/02/04 10:52:07;;;;;;;18.23;2.50;;;;;;;;;;6144958;23;20025;-60
2024/02/04 10:55:03;;;;;;;13.55;2.42;;;;;;;;;;6143451;23;20076;-60
2024/02/04 10:57:57;;;;;;;15.30;2.70;;;;;;;;;;6142965;23;20483;-60
2024/02/04 11:00:44;;;;;;;17.48;2.80;;;;;;;;;;6144096;23;20026;-62
2024/02/04 11:03:39;;;;;;;17.83;3.15;;;;;;;;;;6142742;23;20028;-58
2024/02/04 11:06:26;;;;;;;;;;;;;;;;;;6144927;23;20049;-57
2024/02/04 11:09:20;;;;;;;12.93;2.58;;;;;;;;;;6142560;23;20262;-58
2024/02/04 11:12:12;;;;;;;8.75;2.03;;;;;;;;;;6145059;23;20104;-59
2024/02/04 11:15:13;;;;;;;19.40;2.20;;;;;;;;;;6145654;23;20025;-55
2024/02/04 11:18:13;;;;;;;12.70;2.63;;;;;;;;;;6146486;23;20092;-59
2024/02/04 11:21:34;;;;;;;17.33;2.58;;;;;;;;;;6146737;23;20530;-50
2024/02/04 11:24:40;;;;;;;11.82;2.30;;;;;;;;;;6144984;23;20022;-52
2024/02/04 11:27:35;;;;;;;10.40;2.40;;;;;;;;;;6144628;23;20507;-51
2024/02/04 11:30:23;;;;;;;11.80;2.15;;;;;;;;;;6144347;23;20029;-56
2024/02/04 11:33:20;;;;;;;12.55;2.10;;;;;;;;;;6146365;23;20032;-60
2024/02/04 11:36:15;;;;;;;14.70;2.03;;;;;;;;;;6146551;23;20911;-60
2024/02/04 11:39:11;;;;;;;12.10;2.10;;;;;;;;;;6146734;23;20954;-60
2024/02/04 11:42:15;;;;;;;9.82;2.50;;;;;;;;;;6145834;23;20275;-60
2024/02/04 11:45:08;;;;;;;9.82;1.98;;;;;;;;;;6145544;23;20534;-60
2024/02/04 11:48:03;;;;;;;9.77;1.75;;;;;;;;;;6146208;23;20025;-59
2024/02/04 11:50:54;;;;;;;12.73;2.67;;;;;;;;;;6144848;23;20388;-59
2024/02/04 11:53:48;;;;;;;16.65;2.22;;;;;;;;;;6145242;23;20053;-59
2024/02/04 11:56:36;;;;;;;11.18;2.40;;;;;;;;;;6145948;23;20036;-59
2024/02/04 11:59:30;;;;;;;12.38;2.58;;;;;;;;;;6145375;23;20085;-60
2024/02/04 12:02:23;;;;;;;12.02;2.10;;;;;;;;;;6145201;23;20056;-52
2024/02/04 12:05:17;;;;;;;17.35;2.67;;;;;;;;;;6144809;23;20438;-54
2024/02/04 12:08:06;;;;;;;14.15;2.10;;;;;;;;;;6144731;23;20056;-51
2024/02/04 12:11:01;;;;;;;8.73;2.15;;;;;;;;;;6145664;23;20025;-55
2024/02/04 12:13:56;;;;;;;13.00;2.03;;;;;;;;;;6145056;23;20084;-49
2024/02/04 12:16:57;;;;;;;10.90;2.40;;;;;;;;;;6143697;23;20033;-61
2024/02/04 12:19:44;;;;;;;9.93;3.15;;;;;;;;;;6145789;23;20029;-60
2024/02/04 12:22:39;;;;;;;10.20;2.00;;;;;;;;;;6145633;23;20189;-61
2024/02/04 12:25:27;;;;;;;11.00;2.17;;;;;;;;;;6144020;23;20760;-61
2024/02/04 12:28:20;;;;;;;11.55;2.22;;;;;;;;;;6143523;23;20025;-62
2024/02/04 12:31:08;;;;;;;12.07;2.40;;;;;;;;;;6145108;23;20080;-48
2024/02/04 12:34:01;;;;;;;8.20;2.22;;;;;;;;;;6143382;23;20542;-50
2024/02/04 12:36:58;;;;;;;14.30;2.40;;;;;;;;;;6144197;23;20036;-50
2024/02/04 12:39:51;;;;;;;7.78;2.25;;;;;;;;;;6144422;23;20499;-51
2024/02/04 12:42:39;;;;;;;14.68;2.40;;;;;;;;;;6143760;23;20032;-54
2024/02/04 12:45:33;;;;;;;11.55;2.08;;;;;;;;;;6144089;23;20083;-60
2024/02/04 12:48:23;;;;;;;16.13;2.05;;;;;;;;;;6144381;23;20032;-60
2024/02/04 12:51:23;;;;;;;13.60;2.45;;;;;;;;;;6132115;23;20388;-60
2024/02/04 12:54:11;;;;;;;17.98;2.78;;;;;;;;;;6137408;23;20053;-60
2024/02/04 12:57:06;;;;;;;9.13;2.28;;;;;;;;;;6144839;23;20097;-68
2024/02/04 12:59:53;;;;;;;12.30;2.63;;;;;;;;;;6142675;23;20412;-60
2024/02/04 13:02:50;;;;;;;11.80;2.40;;;;;;;;;;6143705;23;20124;-60
2024/02/04 13:05:37;;;;;;;11.75;2.30;;;;;;;;;;6144503;23;20025;-60
2024/02/04 13:08:31;;;;;;;13.15;2.53;;;;;;;;;;6146130;23;20025;-60
2024/02/04 13:11:22;;;;;;;12.52;2.25;;;;;;;;;;6148718;23;20742;-60
2024/02/04 13:14:15;;;;;;;11.57;2.30;;;;;;;;;;6144838;23;20073;-62
2024/02/04 13:17:09;;;;;;;12.90;2.05;;;;;;;;;;6145464;23;20418;-63
2024/02/04 13:20:04;;;;;;;13.52;3.10;;;;;;;;;;6147565;23;20033;-64
2024/02/04 13:22:53;;;;;;;14.82;2.38;;;;;;;;;;6146833;23;20018;-59
2024/02/04 13:25:47;;;;;;;12.68;2.40;;;;;;;;;;6144141;23;20071;-67
2024/02/04 13:28:33;;;;;;;10.55;2.78;;;;;;;;;;6146063;23;20025;-67
2024/02/04 13:31:28;;;;;;;20.95;2.50;;;;;;;;;;6147594;23;20033;-67
2024/02/04 13:34:14;;;;;;;18.05;2.60;;;;;;;;;;6146047;23;20098;-67
2024/02/04 13:37:08;;;;;;;21.85;3.45;;;;;;;;;;6146801;23;20029;-67
2024/02/04 13:39:55;;;;;;;12.48;2.53;;;;;;;;;;6147401;23;20029;-67
2024/02/04 13:42:48;;;;;;;13.70;1.80;;;;;;;;;;6147122;23;20057;-51
2024/02/04 13:45:36;;;;;;;11.40;2.72;;;;;;;;;;6145329;23;20033;-53
2024/02/04 13:48:30;;;;;;;7.88;2.00;;;;;;;;;;6147034;23;20464;-53
2024/02/04 13:51:17;;;;;;;14.48;2.65;;;;;;;;;;6146110;23;20033;-55
2024/02/04 13:54:15;;;;;;;13.40;2.10;;;;;;;;;;6145872;23;20331;-63
2024/02/04 13:57:10;;;;;;;16.48;2.20;;;;;;;;;;6145778;23;20655;-59
2024/02/04 13:59:57;;;;;;;16.58;2.90;;;;;;;;;;6146079;23;20022;-60
2024/02/04 14:02:51;;;;;;;19.23;2.50;;;;;;;;;;6147790;23;20044;-60
2024/02/04 14:05:39;;;;;;;16.48;2.90;;;;;;;;;;6147017;23;20395;-60
2024/02/04 14:08:31;;;;;;;11.23;2.53;;;;;;;;;;6148810;23;20022;-60
2024/02/04 14:11:18;;;;;;;15.40;2.30;;;;;;;;;;6148547;23;20084;-62
2024/02/04 14:14:13;;;;;;;19.27;3.20;;;;;;;;;;6147189;23;20029;-62
2024/02/04 14:17:07;;;;;;;20.55;2.50;;;;;;;;;;6145901;23;20021;-62
2024/02/04 14:20:01;;;;;;;12.82;2.13;;;;;;;;;;6138139;23;20355;-62
2024/02/04 14:22:48;;;;;;;20.05;3.00;;;;;;;;;;6138425;23;20021;-67
2024/02/04 14:25:41;;;;;;;14.93;3.25;;;;;;;;;;6139200;23;20530;-62
2024/02/04 14:28:28;;;;;;;10.90;2.35;;;;;;;;;;6141967;23;20025;-63
2024/02/04 14:31:22;;;;;;;16.52;2.55;;;;;;;;;;6142399;23;20115;-62
2024/02/04 14:34:10;;;;;;;15.50;3.40;;;;;;;;;;6142486;23;20036;-62
2024/02/04 14:37:04;;;;;;;19.88;2.72;;;;;;;;;;6142228;23;20447;-62
2024/02/04 14:39:59;;;;;;;19.80;2.63;;;;;;;;;;6144439;23;20056;-60
2024/02/04 14:42:45;;;;;;;14.88;2.63;;;;;;;;;;6142795;23;20029;-60
2024/02/04 14:45:38;;;;;;;14.23;2.70;;;;;;;;;;6142886;23;20096;-60
2024/02/04 14:48:32;;;;;;;14.80;2.75;;;;;;;;;;6142724;23;20077;-60
2024/02/04 14:51:27;;;;;;;11.77;2.40;;;;;;;;;;6144308;23;20083;-60
2024/02/04 14:54:21;;;;;;;13.90;2.10;;;;;;;;;;6143723;23;20021;-61
2024/02/04 14:57:08;;;;;;;14.20;2.88;;;;;;;;;;6134891;23;20467;-62
2024/02/04 15:00:01;;;;;;;18.88;3.05;;;;;;;;;;6145174;23;20053;-60
2024/02/04 15:02:49;;;;;;;18.40;3.22;;;;;;;;;;6145456;23;20447;-60
2024/02/04 15:05:43;;;;;;;19.08;3.72;;;;;;;;;;6144193;23;20092;-60
2024/02/04 15:08:30;;;;;;;12.85;2.10;;;;;;;;;;6143098;23;20025;-62
2024/02/04 15:11:23;;;;;;;20.38;3.00;;;;;;;;;;6142762;23;20080;-67
2024/02/04 15:14:11;;;;;;;15.18;2.38;;;;;;;;;;6142187;23;20112;-65
2024/02/04 15:17:11;;;;;;;19.00;3.45;;;;;;;;;;6139246;23;20161;-66
2024/02/04 15:19:59;;;;;;;17.80;3.75;;;;;;;;;;6143096;23;20395;-66
2024/02/04 15:22:53;;;;;;;17.70;2.85;;;;;;;;;;6141880;23;20029;-65
2024/02/04 15:25:40;;;;;;;26.38;2.78;;;;;;;;;;6142602;23;20037;-59
2024/02/04 15:28:33;;;;;;;22.98;3.50;;;;;;;;;;6144249;23;20025;-59
2024/02/04 15:31:21;;;;;;;26.60;4.38;;;;;;;;;;6141358;23;20100;-58
2024/02/04 15:34:14;;;;;;;28.65;3.47;;;;;;;;;;6143353;23;20021;-58
2024/02/04 15:37:06;;;;;;;20.83;3.38;;;;;;;;;;6143599;23;20064;-59
2024/02/04 15:39:58;;;;;;;23.13;3.65;;;;;;;;;;6141120;23;20128;-55
2024/02/04 15:42:46;;;;;;;26.00;3.47;;;;;;;;;;6141737;23;20021;-55
2024/02/04 15:45:39;;;;;;;31.67;4.63;;;;;;;;;;6140774;23;20025;-60
2024/02/04 15:48:37;;;;;;;24.38;3.05;;;;;;;;;;6141952;23;20093;-61
2024/02/04 15:51:26;;;;;;;25.58;3.45;;;;;;;;;;6141836;23;20021;-61
2024/02/04 15:54:20;;;;;;;20.40;3.33;;;;;;;;;;6142287;23;20018;-62
2024/02/04 15:57:09;;;;;;;24.73;4.13;;;;;;;;;;6143340;23;20159;-61
2024/02/04 16:00:11;;;;;;;22.92;3.30;;;;;;;;;;6144999;23;20025;-61
2024/02/04 16:02:51;;;;;;;26.52;3.83;;;;;;;;;;6142011;23;20025;-63
2024/02/04 16:05:46;;;;;;;22.48;3.55;;;;;;;;;;6143176;23;20482;-61
2024/02/04 16:08:33;;;;;;;29.23;4.38;;;;;;;;;;6143480;23;20085;-61
2024/02/04 16:11:32;;;;;;;26.85;2.72;;;;;;;;;;6142643;23;20022;-61
2024/02/04 16:14:20;;;;;;;20.67;3.60;;;;;;;;;;6141973;23;20026;-61